createdAt,value
2019-05-07T00:00:34.298Z,1.05
2019-05-07T00:03:03.119Z,1.00
2019-05-07T00:05:29.325Z,1.10
2019-05-07T00:07:55.982Z,0.90
2019-05-07T00:10:24.962Z,1.27
2019-05-07T00:12:51.993Z,1.22
2019-05-07T00:15:18.635Z,1.17
2019-05-07T00:17:45.126Z,1.07
2019-05-07T00:20:12.827Z,1.35
2019-05-07T00:22:39.402Z,1.00
2019-05-07T00:25:26.875Z,1.20
2019-05-07T00:27:53.511Z,0.80
2019-05-07T00:30:22.189Z,0.90
2019-05-07T00:32:49.559Z,1.15
2019-05-07T00:35:18.185Z,1.40
2019-05-07T00:37:46.653Z,1.00
2019-05-07T00:40:18.202Z,1.37
2019-05-07T00:42:58.765Z,1.12
2019-05-07T00:45:32.491Z,1.10
2019-05-07T00:47:58.598Z,1.15
2019-05-07T00:50:27.038Z,1.17
2019-05-07T00:52:53.715Z,1.25
2019-05-07T00:55:20.153Z,1.00
2019-05-07T00:57:47.978Z,1.12
2019-05-07T01:00:14.778Z,1.00
2019-05-07T01:02:43.082Z,1.00
2019-05-07T01:05:23.436Z,1.30
2019-05-07T01:07:50.082Z,1.25
2019-05-07T01:10:16.700Z,1.15
2019-05-07T01:12:59.270Z,1.10
2019-05-07T01:15:30.643Z,1.10
2019-05-07T01:17:53.536Z,1.02
2019-05-07T01:20:21.984Z,1.10
2019-05-07T01:23:02.622Z,1.10
2019-05-07T01:25:29.327Z,1.10
2019-05-07T01:27:56.051Z,1.10
2019-05-07T01:30:23.219Z,1.12
2019-05-07T01:32:55.449Z,1.10
2019-05-07T01:35:32.777Z,1.40
2019-05-07T01:37:59.291Z,0.95
2019-05-07T01:40:45.632Z,1.22
2019-05-07T01:43:12.295Z,1.30
2019-05-07T01:45:49.017Z,1.40
2019-05-07T01:48:12.121Z,1.37
2019-05-07T01:50:39.708Z,1.57
2019-05-07T01:53:06.356Z,8.38
2019-05-07T01:55:32.793Z,2.05
2019-05-07T01:57:59.377Z,1.72
2019-05-07T02:00:26.040Z,1.27
2019-05-07T02:02:57.347Z,1.60
2019-05-07T02:05:25.858Z,1.17
2019-05-07T02:07:54.423Z,1.32
2019-05-07T02:10:31.942Z,1.32
2019-05-07T02:13:12.598Z,1.80
2019-05-07T02:16:00.297Z,1.40
2019-05-07T02:18:21.838Z,1.30
2019-05-07T02:21:03.209Z,1.30
2019-05-07T02:23:29.747Z,1.40
2019-05-07T02:26:16.209Z,1.35
2019-05-07T02:28:42.918Z,1.40
2019-05-07T02:31:09.536Z,1.75
2019-05-07T02:33:36.749Z,1.62
2019-05-07T02:36:03.387Z,1.52
2019-05-07T02:38:43.839Z,1.52
2019-05-07T02:41:14.295Z,1.40
2019-05-07T02:43:43.014Z,1.30
2019-05-07T02:46:31.853Z,1.35
2019-05-07T02:49:15.080Z,1.57
2019-05-07T02:51:46.534Z,1.40
2019-05-07T02:54:15.111Z,1.10
2019-05-07T02:56:43.454Z,1.30
2019-05-07T02:59:13.308Z,1.50
2019-05-07T03:01:38.168Z,1.42
2019-05-07T03:04:04.893Z,1.15
2019-05-07T03:06:33.950Z,1.12
2019-05-07T03:09:03.248Z,1.20
2019-05-07T03:11:33.658Z,1.32
2019-05-07T03:13:59.304Z,1.35
2019-05-07T03:16:38.114Z,1.70
2019-05-07T03:18:55.548Z,1.27
2019-05-07T03:21:23.475Z,1.10
2019-05-07T03:23:53.830Z,1.50
2019-05-07T03:26:23.120Z,1.52
2019-05-07T03:29:05.574Z,1.32
2019-05-07T03:31:36.295Z,1.27
2019-05-07T03:34:25.093Z,1.45
2019-05-07T03:36:57.428Z,1.10
2019-05-07T03:39:25.265Z,1.37
2019-05-07T03:41:53.109Z,1.17
2019-05-07T03:44:34.215Z,1.40
2019-05-07T03:47:14.792Z,1.07
2019-05-07T03:49:42.982Z,1.50
2019-05-07T03:52:09.577Z,1.55
2019-05-07T03:54:36.066Z,1.60
2019-05-07T03:57:10.819Z,1.42
2019-05-07T03:59:33.968Z,1.30
2019-05-07T04:01:59.590Z,1.40
2019-05-07T04:04:27.376Z,1.45
2019-05-07T04:06:55.199Z,1.37
2019-05-07T04:09:24.148Z,2.55
2019-05-07T04:11:52.838Z,1.80
2019-05-07T04:14:18.425Z,1.50
2019-05-07T04:16:44.962Z,2.02
2019-05-07T04:19:25.202Z,1.50
2019-05-07T04:21:53.397Z,1.60
2019-05-07T04:24:24.747Z,3.40
2019-05-07T04:27:12.857Z,1.85
2019-05-07T04:29:38.358Z,1.70
2019-05-07T04:32:05.603Z,1.90
2019-05-07T04:34:52.960Z,1.85
2019-05-07T04:37:17.964Z,1.75
2019-05-07T04:39:54.017Z,1.50
2019-05-07T04:42:24.349Z,1.52
2019-05-07T04:44:53.961Z,2.17
2019-05-07T04:47:34.745Z,2.92
2019-05-07T04:49:47.795Z,3.52
2019-05-07T04:52:33.657Z,3.27
2019-05-07T04:55:04.060Z,3.67
2019-05-07T04:57:32.989Z,4.15
2019-05-07T05:00:03.010Z,3.67
2019-05-07T05:02:32.547Z,3.45
2019-05-07T05:04:59.137Z,3.00
2019-05-07T05:07:25.701Z,3.25
2019-05-07T05:09:53.162Z,3.52
2019-05-07T05:12:22.450Z,3.30
2019-05-07T05:14:48.413Z,2.85
2019-05-07T05:17:14.886Z,3.40
2019-05-07T05:19:43.744Z,2.67
2019-05-07T05:22:31.758Z,3.33
2019-05-07T05:25:16.800Z,3.25
2019-05-07T05:27:43.253Z,4.40
2019-05-07T05:30:13.775Z,5.85
2019-05-07T05:32:42.337Z,4.62
2019-05-07T05:35:09.499Z,4.75
2019-05-07T05:37:36.912Z,4.00
2019-05-07T05:40:09.000Z,4.10
2019-05-07T05:42:37.843Z,3.70
2019-05-07T05:45:05.698Z,3.90
2019-05-07T05:47:33.003Z,3.87
2019-05-07T05:50:01.966Z,3.87
2019-05-07T05:52:36.401Z,3.85
2019-05-07T05:55:05.815Z,3.87
2019-05-07T05:57:37.050Z,3.47
2019-05-07T06:00:07.184Z,3.95
2019-05-07T06:02:35.804Z,4.72
2019-05-07T06:05:42.063Z,6.90
2019-05-07T06:08:12.454Z,12.53
2019-05-07T06:10:57.375Z,6.33
2019-05-07T06:13:47.419Z,6.17
2019-05-07T06:16:18.629Z,6.40
2019-05-07T06:18:52.335Z,5.92
2019-05-07T06:21:20.619Z,5.80
2019-05-07T06:23:54.766Z,5.95
2019-05-07T06:26:22.687Z,4.50
2019-05-07T06:29:02.475Z,4.83
2019-05-07T06:31:29.140Z,4.95
2019-05-07T06:33:55.863Z,4.60
2019-05-07T06:36:22.634Z,4.95
2019-05-07T06:38:53.045Z,4.47
2019-05-07T06:41:37.866Z,5.30
2019-05-07T06:44:06.480Z,4.65
2019-05-07T06:46:33.077Z,5.03
2019-05-07T06:48:59.628Z,4.97
2019-05-07T06:51:25.980Z,4.67
2019-05-07T06:54:13.001Z,5.97
2019-05-07T06:56:39.582Z,4.58
2019-05-07T06:59:08.242Z,5.62
2019-05-07T07:01:53.386Z,10.78
2019-05-07T07:04:24.895Z,5.00
2019-05-07T07:06:53.260Z,4.53
2019-05-07T07:09:42.413Z,4.47
2019-05-07T07:12:14.060Z,5.50
2019-05-07T07:14:42.337Z,4.03
2019-05-07T07:17:09.277Z,4.00
2019-05-07T07:19:36.307Z,3.83
2019-05-07T07:22:03.479Z,3.98
2019-05-07T07:24:30.080Z,3.50
2019-05-07T07:26:56.683Z,3.80
2019-05-07T07:29:32.995Z,5.45
2019-05-07T07:32:06.973Z,5.75
2019-05-07T07:34:35.650Z,4.70
2019-05-07T07:37:08.965Z,4.03
2019-05-07T07:39:32.671Z,3.90
2019-05-07T07:42:03.998Z,3.02
2019-05-07T07:44:32.831Z,3.10
2019-05-07T07:46:59.217Z,2.60
2019-05-07T07:49:25.547Z,1.90
2019-05-07T07:51:52.559Z,1.90
2019-05-07T07:54:19.543Z,1.70
2019-05-07T07:56:56.619Z,1.85
2019-05-07T07:59:28.221Z,1.70
2019-05-07T08:01:56.686Z,1.90
2019-05-07T08:04:23.338Z,1.50
2019-05-07T08:07:03.147Z,2.02
2019-05-07T08:09:32.606Z,2.10
2019-05-07T08:12:14.376Z,2.33
2019-05-07T08:14:42.678Z,1.98
2019-05-07T08:17:29.487Z,2.02
2019-05-07T08:19:56.203Z,1.55
2019-05-07T08:22:23.017Z,1.70
2019-05-07T08:24:51.764Z,1.50
2019-05-07T08:27:17.908Z,1.37
2019-05-07T08:29:44.446Z,1.40
2019-05-07T08:32:22.368Z,1.70
2019-05-07T08:34:53.938Z,1.72
2019-05-07T08:37:24.185Z,1.55
2019-05-07T08:40:09.540Z,2.10
2019-05-07T08:42:52.242Z,2.37
2019-05-07T08:45:36.839Z,2.17
2019-05-07T08:48:05.650Z,2.00
2019-05-07T08:50:32.657Z,2.55
2019-05-07T08:52:59.232Z,2.10
2019-05-07T08:55:25.988Z,1.85
2019-05-07T08:58:05.459Z,1.98
2019-05-07T09:00:32.574Z,1.98
2019-05-07T09:03:01.591Z,3.85
2019-05-07T09:05:28.039Z,4.67
2019-05-07T09:07:54.669Z,4.58
2019-05-07T09:10:21.870Z,3.15
2019-05-07T09:12:48.622Z,3.17
2019-05-07T09:15:15.280Z,2.20
2019-05-07T09:17:42.401Z,2.35
2019-05-07T09:20:09.360Z,2.67
2019-05-07T09:22:36.154Z,2.30
2019-05-07T09:25:05.001Z,2.37
2019-05-07T09:27:42.827Z,2.50
2019-05-07T09:30:15.608Z,2.62
2019-05-07T09:32:46.985Z,2.72
2019-05-07T09:35:18.167Z,2.58
2019-05-07T09:37:45.571Z,2.60
2019-05-07T09:40:12.684Z,2.92
2019-05-07T09:42:39.289Z,2.98
2019-05-07T09:45:06.874Z,3.15
2019-05-07T09:47:41.611Z,2.62
2019-05-07T09:50:08.878Z,3.10
2019-05-07T09:52:42.697Z,3.08
2019-05-07T09:55:16.600Z,2.98
2019-05-07T09:57:52.759Z,3.72
2019-05-07T10:00:22.630Z,3.33
2019-05-07T10:02:49.447Z,3.40
2019-05-07T10:05:16.166Z,3.20
2019-05-07T10:07:42.872Z,3.17
2019-05-07T10:10:11.981Z,2.37
2019-05-07T10:12:43.981Z,2.55
2019-05-07T10:15:12.309Z,3.00
2019-05-07T10:17:43.811Z,3.10
2019-05-07T10:20:21.388Z,2.77
2019-05-07T10:22:42.700Z,3.00
2019-05-07T10:25:08.690Z,3.08
2019-05-07T10:27:55.113Z,3.47
2019-05-07T10:30:34.710Z,4.08
2019-05-07T10:33:01.854Z,3.33
2019-05-07T10:35:31.140Z,3.00
2019-05-07T10:37:58.082Z,3.80
2019-05-07T10:40:25.195Z,4.50
2019-05-07T10:42:52.241Z,4.30
2019-05-07T10:45:29.743Z,4.05
2019-05-07T10:48:04.246Z,3.47
2019-05-07T10:50:38.723Z,3.50
2019-05-07T10:53:02.133Z,3.33
2019-05-07T10:55:29.464Z,3.52
2019-05-07T10:57:55.985Z,4.53
2019-05-07T11:00:25.886Z,7.70
2019-05-07T11:02:52.753Z,4.42
2019-05-07T11:05:19.493Z,4.20
2019-05-07T11:07:45.985Z,4.00
2019-05-07T11:10:12.815Z,3.80
2019-05-07T11:12:39.847Z,4.20
2019-05-07T11:15:22.046Z,6.05
2019-05-07T11:17:52.093Z,8.28
2019-05-07T11:20:24.520Z,5.28
2019-05-07T11:22:52.233Z,3.60
2019-05-07T11:25:18.919Z,3.60
2019-05-07T11:27:58.650Z,3.40
2019-05-07T11:30:25.568Z,3.67
2019-05-07T11:32:52.488Z,3.75
2019-05-07T11:35:22.747Z,3.55
2019-05-07T11:37:48.776Z,3.27
2019-05-07T11:40:19.664Z,3.40
2019-05-07T11:43:03.422Z,3.15
2019-05-07T11:45:41.800Z,3.00
2019-05-07T11:48:08.290Z,2.75
2019-05-07T11:51:01.365Z,2.98
2019-05-07T11:53:23.619Z,2.72
2019-05-07T11:55:52.243Z,2.72
2019-05-07T11:58:18.927Z,3.05
2019-05-07T12:00:50.255Z,3.05
2019-05-07T12:03:17.145Z,5.58
2019-05-07T12:05:43.965Z,7.92
2019-05-07T12:08:37.561Z,5.42
2019-05-07T12:10:52.877Z,4.53
2019-05-07T12:13:21.634Z,3.55
2019-05-07T12:15:47.826Z,3.17
2019-05-07T12:18:14.479Z,3.00
2019-05-07T12:20:41.201Z,3.25
2019-05-07T12:23:07.889Z,3.15
2019-05-07T12:25:34.603Z,2.87
2019-05-07T12:28:02.494Z,2.98
2019-05-07T12:30:47.995Z,3.30
2019-05-07T12:33:19.455Z,3.05
2019-05-07T12:36:07.981Z,3.70
2019-05-07T12:38:34.589Z,3.83
2019-05-07T12:41:03.928Z,2.90
2019-05-07T12:43:31.911Z,3.10
2019-05-07T12:45:59.896Z,2.50
2019-05-07T12:48:26.789Z,3.92
2019-05-07T12:51:00.944Z,2.90
2019-05-07T12:53:29.408Z,2.80
2019-05-07T12:55:59.101Z,3.02
2019-05-07T12:58:28.848Z,3.65
2019-05-07T13:00:57.468Z,4.08
2019-05-07T13:03:26.096Z,4.22
2019-05-07T13:05:52.627Z,5.72
2019-05-07T13:08:33.115Z,4.67
2019-05-07T13:10:59.892Z,4.80
2019-05-07T13:13:26.534Z,3.50
2019-05-07T13:15:53.266Z,3.05
2019-05-07T13:18:39.734Z,2.95
2019-05-07T13:21:06.354Z,3.67
2019-05-07T13:23:32.932Z,3.45
2019-05-07T13:26:12.489Z,3.52
2019-05-07T13:28:46.834Z,3.42
2019-05-07T13:31:15.957Z,3.70
2019-05-07T13:33:44.614Z,3.47
2019-05-07T13:36:12.352Z,3.90
2019-05-07T13:38:57.470Z,3.77
2019-05-07T13:41:42.107Z,3.65
2019-05-07T13:44:15.549Z,3.37
2019-05-07T13:46:45.025Z,3.70
2019-05-07T13:49:12.483Z,3.10
2019-05-07T13:51:41.648Z,2.90
2019-05-07T13:54:08.237Z,3.80
2019-05-07T13:56:34.872Z,3.33
2019-05-07T13:59:02.385Z,3.77
2019-05-07T14:01:35.233Z,3.35
2019-05-07T14:04:04.098Z,2.98
2019-05-07T14:06:39.803Z,3.15
2019-05-07T14:09:24.492Z,4.40
2019-05-07T14:11:52.707Z,3.33
2019-05-07T14:14:22.367Z,3.17
2019-05-07T14:16:49.819Z,2.83
2019-05-07T14:19:16.517Z,3.98
2019-05-07T14:21:42.944Z,3.92
2019-05-07T14:24:24.121Z,4.00
2019-05-07T14:26:52.781Z,3.70
2019-05-07T14:29:24.356Z,3.50
2019-05-07T14:31:52.282Z,3.77
2019-05-07T14:34:22.480Z,3.47
2019-05-07T14:36:54.121Z,3.12
2019-05-07T14:39:22.023Z,3.22
2019-05-07T14:41:52.148Z,3.45
2019-05-07T14:44:18.740Z,3.37
2019-05-07T14:46:51.592Z,2.58
2019-05-07T14:49:15.527Z,3.52
2019-05-07T14:51:42.255Z,8.03
2019-05-07T14:54:08.866Z,4.60
2019-05-07T14:56:35.352Z,3.30
2019-05-07T14:59:02.368Z,3.20
2019-05-07T15:01:29.039Z,3.17
2019-05-07T15:03:56.022Z,3.00
2019-05-07T15:06:22.791Z,2.83
2019-05-07T15:08:49.296Z,3.83
2019-05-07T15:11:15.937Z,3.17
2019-05-07T15:13:42.819Z,2.92
2019-05-07T15:16:09.469Z,3.55
2019-05-07T15:18:53.118Z,3.50
2019-05-07T15:21:32.750Z,4.17
2019-05-07T15:24:02.335Z,4.08
2019-05-07T15:26:28.905Z,6.53
2019-05-07T15:28:57.577Z,4.05
2019-05-07T15:31:27.163Z,3.80
2019-05-07T15:33:53.798Z,4.53
2019-05-07T15:36:21.564Z,4.60
2019-05-07T15:38:48.246Z,4.25
2019-05-07T15:41:15.003Z,3.87
2019-05-07T15:43:45.940Z,4.22
2019-05-07T15:46:12.269Z,3.90
2019-05-07T15:48:41.886Z,4.00
2019-05-07T15:51:08.379Z,3.87
2019-05-07T15:53:39.796Z,4.42
2019-05-07T15:56:06.495Z,4.00
2019-05-07T15:58:52.977Z,4.45
2019-05-07T16:01:19.648Z,4.10
2019-05-07T16:03:46.695Z,3.85
2019-05-07T16:06:13.309Z,3.50
2019-05-07T16:08:44.400Z,4.00
2019-05-07T16:11:12.570Z,4.20
2019-05-07T16:13:44.049Z,3.85
2019-05-07T16:16:10.635Z,4.08
2019-05-07T16:18:39.112Z,4.42
2019-05-07T16:21:05.652Z,4.58
2019-05-07T16:23:32.594Z,6.10
2019-05-07T16:25:59.922Z,4.30
2019-05-07T16:28:26.474Z,4.50
2019-05-07T16:30:53.229Z,4.28
2019-05-07T16:33:19.650Z,4.83
2019-05-07T16:35:46.480Z,4.50
2019-05-07T16:38:15.051Z,4.45
2019-05-07T16:40:42.845Z,4.85
2019-05-07T16:43:11.969Z,5.47
2019-05-07T16:45:38.684Z,5.08
2019-05-07T16:48:05.493Z,4.62
2019-05-07T16:50:32.632Z,5.60
2019-05-07T16:52:59.474Z,4.95
2019-05-07T16:55:36.907Z,6.17
2019-05-07T16:58:12.555Z,4.70
2019-05-07T17:00:44.124Z,5.03
2019-05-07T17:03:12.579Z,5.50
2019-05-07T17:05:39.152Z,4.83
2019-05-07T17:08:07.666Z,5.90
2019-05-07T17:10:34.068Z,5.80
2019-05-07T17:13:02.756Z,4.97
2019-05-07T17:15:29.112Z,5.12
2019-05-07T17:17:58.615Z,4.78
2019-05-07T17:20:25.381Z,4.50
2019-05-07T17:22:52.074Z,4.78
2019-05-07T17:25:36.884Z,4.72
2019-05-07T17:28:06.074Z,4.75
2019-05-07T17:30:32.953Z,5.00
2019-05-07T17:33:19.538Z,4.28
2019-05-07T17:35:46.345Z,5.45
2019-05-07T17:38:13.110Z,6.62
2019-05-07T17:40:39.832Z,5.95
2019-05-07T17:43:06.778Z,5.87
2019-05-07T17:45:34.428Z,5.08
2019-05-07T17:48:02.936Z,5.00
2019-05-07T17:50:42.668Z,4.78
2019-05-07T17:53:09.470Z,5.25
2019-05-07T17:55:36.026Z,5.78
2019-05-07T17:58:02.721Z,5.12
2019-05-07T18:00:29.421Z,4.70
2019-05-07T18:03:16.017Z,4.10
2019-05-07T18:05:42.827Z,5.78
2019-05-07T18:08:09.475Z,5.65
2019-05-07T18:10:35.926Z,5.15
2019-05-07T18:13:22.465Z,5.10
2019-05-07T18:15:49.065Z,5.80
2019-05-07T18:18:15.649Z,16.25
2019-05-07T18:20:42.305Z,7.50
2019-05-07T18:23:16.105Z,6.42
2019-05-07T18:25:38.680Z,7.80
2019-05-07T18:28:05.456Z,6.62
2019-05-07T18:30:32.677Z,5.20
2019-05-07T18:33:13.549Z,4.90
2019-05-07T18:35:42.869Z,4.90
2019-05-07T18:38:12.477Z,4.40
2019-05-07T18:40:39.306Z,4.05
2019-05-07T18:43:06.179Z,4.05
2019-05-07T18:45:32.805Z,4.55
2019-05-07T18:47:59.439Z,4.42
2019-05-07T18:50:26.142Z,4.60
2019-05-07T18:52:52.795Z,4.58
2019-05-07T18:55:19.561Z,4.35
2019-05-07T18:57:48.170Z,5.92
2019-05-07T19:00:17.578Z,7.92
2019-05-07T19:02:44.256Z,9.28
2019-05-07T19:05:12.963Z,6.60
2019-05-07T19:07:41.561Z,5.72
2019-05-07T19:10:08.007Z,6.12
2019-05-07T19:12:35.624Z,6.20
2019-05-07T19:15:22.076Z,6.03
2019-05-07T19:17:48.725Z,5.10
2019-05-07T19:20:15.474Z,6.15
2019-05-07T19:22:42.481Z,4.90
2019-05-07T19:25:09.313Z,4.75
2019-05-07T19:27:35.986Z,6.35
2019-05-07T19:30:16.746Z,4.08
2019-05-07T19:32:43.532Z,4.17
2019-05-07T19:35:12.366Z,6.60
2019-05-07T19:37:39.399Z,5.55
2019-05-07T19:40:06.588Z,4.78
2019-05-07T19:42:33.253Z,3.98
2019-05-07T19:45:02.494Z,4.17
2019-05-07T19:47:28.516Z,4.30
2019-05-07T19:49:56.183Z,3.80
2019-05-07T19:52:23.268Z,3.70
2019-05-07T19:55:00.867Z,4.58
2019-05-07T19:57:23.135Z,3.62
2019-05-07T19:59:52.117Z,3.12
2019-05-07T20:02:22.695Z,3.72
2019-05-07T20:04:48.615Z,3.40
2019-05-07T20:07:15.159Z,3.60
2019-05-07T20:09:42.852Z,3.90
2019-05-07T20:12:09.583Z,3.80
2019-05-07T20:14:36.291Z,3.15
2019-05-07T20:17:03.071Z,3.60
2019-05-07T20:19:29.748Z,4.60
2019-05-07T20:21:56.470Z,3.77
2019-05-07T20:24:23.150Z,4.87
2019-05-07T20:26:52.444Z,4.00
2019-05-07T20:29:18.441Z,3.62
2019-05-07T20:31:45.129Z,4.20
2019-05-07T20:34:13.127Z,4.22
2019-05-07T20:36:40.092Z,3.70
2019-05-07T20:39:06.977Z,4.00
2019-05-07T20:41:35.377Z,3.85
2019-05-07T20:44:03.072Z,3.65
2019-05-07T20:46:31.900Z,4.05
2019-05-07T20:48:58.810Z,4.25
2019-05-07T20:51:25.823Z,3.17
2019-05-07T20:53:54.672Z,2.98
2019-05-07T20:56:26.400Z,3.10
2019-05-07T20:58:53.364Z,3.17
2019-05-07T21:01:21.981Z,4.00
2019-05-07T21:03:48.719Z,3.90
2019-05-07T21:06:15.289Z,3.95
2019-05-07T21:08:42.790Z,3.98
2019-05-07T21:11:11.802Z,4.10
2019-05-07T21:13:38.076Z,3.90
2019-05-07T21:16:04.695Z,4.28
2019-05-07T21:18:32.708Z,3.70
2019-05-07T21:21:01.996Z,4.53
2019-05-07T21:23:28.163Z,3.92
2019-05-07T21:25:54.857Z,3.90
2019-05-07T21:28:21.586Z,3.98
2019-05-07T21:30:48.258Z,4.75
2019-05-07T21:33:14.844Z,4.53
2019-05-07T21:35:42.919Z,4.67
2019-05-07T21:38:09.462Z,5.33
2019-05-07T21:40:36.264Z,5.65
2019-05-07T21:43:03.001Z,5.00
2019-05-07T21:45:29.649Z,5.08
2019-05-07T21:47:56.328Z,4.67
2019-05-07T21:50:23.796Z,5.05
2019-05-07T21:52:54.047Z,5.10
2019-05-07T21:55:22.515Z,5.12
2019-05-07T21:57:52.413Z,5.30
2019-05-07T22:00:32.598Z,5.62
2019-05-07T22:03:12.551Z,5.78
2019-05-07T22:05:44.035Z,6.20
2019-05-07T22:08:09.372Z,5.25
2019-05-07T22:10:36.047Z,5.20
2019-05-07T22:13:03.295Z,6.45
2019-05-07T22:15:31.876Z,16.73
2019-05-07T22:17:58.415Z,8.48
2019-05-07T22:20:24.960Z,5.62
2019-05-07T22:22:52.152Z,6.00
2019-05-07T22:25:18.815Z,5.78
2019-05-07T22:27:47.417Z,5.45
2019-05-07T22:30:27.973Z,5.30
2019-05-07T22:32:56.342Z,5.28
2019-05-07T22:35:24.823Z,5.10
2019-05-07T22:37:55.895Z,5.28
2019-05-07T22:40:32.136Z,5.25
2019-05-07T22:43:02.156Z,5.22
2019-05-07T22:45:29.229Z,5.25
2019-05-07T22:47:56.008Z,5.20
2019-05-07T22:50:23.632Z,5.33
2019-05-07T22:52:54.198Z,5.12
2019-05-07T22:55:18.491Z,5.53
2019-05-07T22:57:49.892Z,5.33
2019-05-07T23:00:19.604Z,5.62
2019-05-07T23:02:46.249Z,5.45
2019-05-07T23:05:12.805Z,5.15
2019-05-07T23:07:41.815Z,5.62
2019-05-07T23:10:08.120Z,4.80
2019-05-07T23:12:34.637Z,4.92
2019-05-07T23:15:02.727Z,4.87
2019-05-07T23:17:32.601Z,4.35
2019-05-07T23:19:59.167Z,4.60
2019-05-07T23:22:25.747Z,5.03
2019-05-07T23:24:52.212Z,5.53
2019-05-07T23:27:18.725Z,5.67
2019-05-07T23:29:45.382Z,5.55
2019-05-07T23:32:12.656Z,5.60
2019-05-07T23:34:39.563Z,5.75
2019-05-07T23:37:06.232Z,6.12
2019-05-07T23:39:34.858Z,7.40
2019-05-07T23:42:03.244Z,6.47
2019-05-07T23:44:30.382Z,6.40
2019-05-07T23:46:56.912Z,8.33
2019-05-07T23:49:23.420Z,8.50
2019-05-07T23:51:49.833Z,7.58
2019-05-07T23:54:16.393Z,7.05
2019-05-07T23:56:42.999Z,6.60
2019-05-07T23:59:09.715Z,7.37
